Mullen, Nebraska
Current Conditions -  °F | °C
As of 5:15 AM on Sunday 23 Nov 2014 (Local Time) from KTIF Reporting Station
Overcast Overcast  
Wind Chill: 32°   Ceiling: 6500
Heat Index: 40°   Visibility: 10mi
Dew Point: 32°   Wind: 13mph
Humidity: 74%   Direction: 330°NNW
Pressure: 29.59"   Gusts: NA
Location:  42.04°N, 101.04°W
Report Text: KTIF 231215Z AUTO 33011KT 10SM BKN065 OVC110 04/00 A2959 RMK AO2 T00420000
Loading
Personal Weather Stations






























Interactive Weather Map New forecast layout! Learn more

10-Day Weather Forecast

Advertisements
Track Severe Weather on mobile